Time;durP1;ratioP1;P1;durP2;ratioP2;P2;SDS_P1;SDS_P2;PMS_P1;PMS_P2;Temp;Humidity;BMP_temperature;BMP_pressure;BME280_temperature;BME280_humidity;BME280_pressure;Samples;Min_cycle;Max_cycle;Signal;HPM_P1;HPM_P2
2022/01/16 00:00:16;;;;;;;134.73;31.85;;;4.00;99.90;;;;;;5050439;28;20390;-77
2022/01/16 00:05:29;;;;;;;99.68;28.52;;;4.00;99.90;;;;;;5074911;28;20475;-77
2022/01/16 00:07:56;;;;;;;67.82;26.33;;;4.00;99.90;;;;;;5057472;28;20021;-77
2022/01/16 00:10:25;;;;;;;78.78;26.92;;;3.80;99.90;;;;;;5060098;28;20116;-77
2022/01/16 00:12:52;;;;;;;115.03;29.98;;;3.90;99.90;;;;;;5053126;28;20025;-77
2022/01/16 00:15:22;;;;;;;48.03;23.52;;;3.90;99.90;;;;;;5053146;28;20031;-77
2022/01/16 00:20:31;;;;;;;51.53;22.30;;;3.80;99.90;;;;;;5061533;28;20775;-77
2022/01/16 00:22:59;;;;;;;62.47;25.48;;;3.70;99.90;;;;;;5054481;28;20043;-77
2022/01/16 00:25:27;;;;;;;50.70;23.80;;;3.70;99.90;;;;;;5053448;28;20036;-78
2022/01/16 00:27:53;;;;;;;87.97;27.05;;;3.80;99.90;;;;;;5052846;28;20470;-77
2022/01/16 00:30:22;;;;;;;57.55;24.58;;;3.80;99.90;;;;;;5053513;28;20028;-77
2022/01/16 00:32:50;;;;;;;70.32;25.80;;;3.80;99.90;;;;;;5034637;28;20500;-77
2022/01/16 00:35:18;;;;;;;53.80;23.65;;;3.80;99.90;;;;;;5037528;28;20063;-77
2022/01/16 00:37:48;;;;;;;65.93;23.67;;;3.80;99.90;;;;;;5073264;28;20408;-77
2022/01/16 00:40:16;;;;;;;49.00;23.67;;;3.70;99.90;;;;;;5090057;28;20032;-78
2022/01/16 00:42:44;;;;;;;69.50;26.33;;;3.70;99.90;;;;;;5064551;28;21394;-78
2022/01/16 00:45:16;;;;;;;84.85;26.80;;;3.70;99.90;;;;;;5074350;28;20107;-78
2022/01/16 00:47:45;;;;;;;74.38;24.67;;;3.60;99.90;;;;;;5067227;28;20392;-77
2022/01/16 00:50:12;;;;;;;48.53;22.20;;;3.60;99.90;;;;;;5054119;28;20031;-78
2022/01/16 00:52:39;;;;;;;75.95;25.75;;;3.50;99.90;;;;;;5052656;28;20031;-78
2022/01/16 00:55:06;;;;;;;71.78;27.98;;;3.50;99.90;;;;;;5052868;28;20025;-78
2022/01/16 00:57:33;;;;;;;57.55;24.90;;;3.50;99.90;;;;;;5053912;28;20023;-77
2022/01/16 01:00:03;;;;;;;76.18;26.92;;;3.50;99.90;;;;;;5051936;28;20025;-77
2022/01/16 01:02:30;;;;;;;76.32;26.98;;;3.60;99.90;;;;;;5053931;28;20025;-77
2022/01/16 01:04:57;;;;;;;76.03;27.77;;;3.50;99.90;;;;;;5052488;28;20020;-78
2022/01/16 01:07:25;;;;;;;201.07;37.63;;;3.60;99.90;;;;;;5052561;28;20079;-78
2022/01/16 01:10:03;;;;;;;58.40;27.25;;;3.60;99.90;;;;;;5053792;28;20036;-77
2022/01/16 01:12:51;;;;;;;57.47;26.73;;;3.60;99.90;;;;;;5052232;28;20021;-77
2022/01/16 01:15:30;;;;;;;59.70;25.95;;;3.70;99.90;;;;;;5048445;28;20513;-78
2022/01/16 01:17:56;;;;;;;73.03;28.17;;;3.60;99.90;;;;;;5053550;28;20108;-77
2022/01/16 01:20:24;;;;;;;74.57;28.08;;;3.70;99.90;;;;;;5053477;28;20029;-77
2022/01/16 01:22:52;;;;;;;62.63;28.17;;;3.80;99.90;;;;;;5052187;28;20075;-78
2022/01/16 01:25:19;;;;;;;58.72;28.27;;;3.70;99.90;;;;;;5052494;28;20028;-77
2022/01/16 01:27:47;;;;;;;87.18;29.73;;;3.80;99.90;;;;;;5052057;28;20041;-77
2022/01/16 01:30:16;;;;;;;116.63;32.78;;;3.70;99.90;;;;;;5052323;28;20037;-77
2022/01/16 01:32:47;;;;;;;61.72;27.85;;;3.50;99.90;;;;;;5053424;28;20021;-77
2022/01/16 01:35:15;;;;;;;75.32;28.88;;;3.50;99.90;;;;;;5063905;28;20038;-77
2022/01/16 01:37:44;;;;;;;126.15;32.97;;;3.60;99.90;;;;;;5032283;28;20025;-78
2022/01/16 01:40:19;;;;;;;173.93;38.28;;;3.50;99.90;;;;;;5033253;28;20053;-77
2022/01/16 01:43:03;;;;;;;75.88;30.05;;;3.60;99.90;;;;;;5036712;28;20058;-77
2022/01/16 01:51:32;;;;;;;99.20;35.67;;;3.50;99.90;;;;;;5053423;28;20036;-77
2022/01/16 01:54:02;;;;;;;89.28;34.33;;;3.60;99.90;;;;;;5065354;28;20495;-77
2022/01/16 01:56:31;;;;;;;82.70;35.50;;;3.60;99.90;;;;;;5057841;28;20036;-78
2022/01/16 01:59:01;;;;;;;88.53;36.33;;;3.70;99.90;;;;;;5053027;28;20033;-78
2022/01/16 02:01:30;;;;;;;113.80;38.15;;;3.60;99.90;;;;;;5051762;28;20524;-78
2022/01/16 02:03:56;;;;;;;100.78;39.30;;;3.50;99.90;;;;;;5051727;28;20021;-78
2022/01/16 02:06:25;;;;;;;97.18;40.92;;;3.60;99.90;;;;;;5052842;28;20055;-78
2022/01/16 02:08:55;;;;;;;117.15;41.05;;;3.60;99.90;;;;;;5053036;28;20824;-78
2022/01/16 02:11:25;;;;;;;145.65;47.30;;;3.60;99.90;;;;;;5056778;28;20381;-78
2022/01/16 02:14:11;;;;;;;106.63;40.30;;;3.60;99.90;;;;;;5049290;28;20132;-77
2022/01/16 02:36:43;;;;;;;139.85;48.75;;;3.70;99.90;;;;;;5079823;28;20064;-78
2022/01/16 02:39:12;;;;;;;119.72;46.10;;;3.70;99.90;;;;;;5067493;28;20040;-77
2022/01/16 02:41:39;;;;;;;122.83;45.90;;;3.60;99.90;;;;;;5059375;28;20060;-77
2022/01/16 02:44:21;;;;;;;170.68;54.20;;;3.70;99.90;;;;;;5037417;28;20366;-78
2022/01/16 02:46:50;;;;;;;116.35;47.80;;;3.80;99.90;;;;;;5058247;28;20086;-77
2022/01/16 02:49:23;;;;;;;155.77;54.42;;;3.80;99.90;;;;;;5055939;28;20128;-77
2022/01/16 02:51:56;;;;;;;135.73;51.20;;;3.90;99.90;;;;;;5039361;28;20021;-78
2022/01/16 02:54:27;;;;;;;120.78;48.90;;;3.90;99.90;;;;;;5072120;28;20020;-78
2022/01/16 02:56:59;;;;;;;147.00;52.90;;;4.00;99.90;;;;;;5079388;28;20027;-78
2022/01/16 02:59:25;;;;;;;125.10;49.17;;;4.00;99.90;;;;;;5078045;28;20107;-78
2022/01/16 03:01:57;;;;;;;120.47;47.63;;;4.00;99.90;;;;;;5079300;28;20460;-78
2022/01/16 03:04:24;;;;;;;121.00;46.95;;;4.00;99.90;;;;;;5078081;28;20024;-78
2022/01/16 03:06:53;;;;;;;133.93;47.45;;;4.00;99.90;;;;;;5079177;28;20051;-77
2022/01/16 03:09:46;;;;;;;115.13;45.15;;;4.00;99.90;;;;;;5078885;28;20024;-78
2022/01/16 03:12:15;;;;;;;113.28;47.67;;;4.10;99.90;;;;;;5054617;28;20056;-78
2022/01/16 03:14:41;;;;;;;135.05;50.42;;;4.10;99.90;;;;;;5057773;28;20436;-78
2022/01/16 03:17:11;;;;;;;128.98;51.60;;;4.10;99.90;;;;;;5057734;28;20024;-77
2022/01/16 03:22:27;;;;;;;116.20;48.08;;;4.10;99.90;;;;;;5056012;28;20040;-78
2022/01/16 03:24:55;;;;;;;112.78;47.10;;;4.10;99.90;;;;;;5054542;28;20385;-78
2022/01/16 03:27:22;;;;;;;116.85;47.25;;;4.10;99.90;;;;;;5055841;28;20463;-78
2022/01/16 03:29:52;;;;;;;108.97;47.10;;;4.20;99.90;;;;;;5050028;28;20390;-78
2022/01/16 03:32:24;;;;;;;119.25;49.17;;;4.10;99.90;;;;;;5035765;28;20728;-78
2022/01/16 03:34:50;;;;;;;136.07;52.30;;;4.20;99.90;;;;;;5035593;28;20041;-78
2022/01/16 03:37:21;;;;;;;118.13;50.83;;;4.20;99.90;;;;;;5035258;28;20029;-78
2022/01/16 03:39:47;;;;;;;126.20;52.67;;;4.10;99.90;;;;;;5050980;28;20029;-77
2022/01/16 03:42:23;;;;;;;118.70;50.33;;;4.20;99.90;;;;;;5034306;28;20014;-78
2022/01/16 03:44:52;;;;;;;110.10;48.38;;;4.20;99.90;;;;;;5050830;28;20014;-78
2022/01/16 03:47:24;;;;;;;129.10;52.65;;;4.20;99.90;;;;;;5036698;28;20108;-78
2022/01/16 03:49:49;;;;;;;125.63;50.73;;;4.10;99.90;;;;;;5054043;28;20036;-77
2022/01/16 03:52:16;;;;;;;133.75;52.97;;;4.20;99.90;;;;;;5053954;28;20025;-77
2022/01/16 03:54:43;;;;;;;121.22;50.90;;;4.20;99.90;;;;;;5055245;28;20036;-78
2022/01/16 03:57:09;;;;;;;134.85;53.67;;;4.20;99.90;;;;;;5055256;28;20060;-77
2022/01/16 03:59:36;;;;;;;114.88;49.22;;;4.20;99.90;;;;;;5063905;28;20059;-77
2022/01/16 04:02:05;;;;;;;111.45;50.15;;;4.30;99.90;;;;;;5075117;28;20029;-77
2022/01/16 04:04:37;;;;;;;122.47;52.25;;;4.30;99.90;;;;;;5066847;28;20729;-78
2022/01/16 04:07:15;;;;;;;125.45;53.72;;;4.30;99.90;;;;;;5054843;28;20028;-77
2022/01/16 04:09:46;;;;;;;138.75;53.72;;;4.30;99.90;;;;;;5053719;28;20025;-78
2022/01/16 04:12:12;;;;;;;141.33;56.33;;;4.40;99.90;;;;;;5053644;28;20029;-77
2022/01/16 04:17:21;;;;;;;122.95;52.45;;;4.40;99.90;;;;;;5054986;28;20025;-78
2022/01/16 04:19:53;;;;;;;123.07;55.30;;;4.50;99.90;;;;;;5049302;28;20075;-77
2022/01/16 04:22:20;;;;;;;116.00;53.72;;;4.40;99.90;;;;;;5055105;28;20061;-77
2022/01/16 04:24:47;;;;;;;123.40;54.75;;;4.40;99.90;;;;;;5054334;28;20025;-78
2022/01/16 04:27:13;;;;;;;117.10;50.75;;;4.40;99.90;;;;;;5053377;28;20028;-78
2022/01/16 04:29:42;;;;;;;121.55;52.35;;;4.40;99.90;;;;;;5054578;28;20028;-77
2022/01/16 04:32:09;;;;;;;125.05;54.15;;;4.30;99.90;;;;;;5054425;28;20020;-77
2022/01/16 04:34:35;;;;;;;124.20;53.83;;;4.40;99.90;;;;;;5051705;28;20017;-77
2022/01/16 04:37:01;;;;;;;130.25;54.95;;;4.30;99.90;;;;;;5053189;28;20122;-78
2022/01/16 04:39:32;;;;;;;128.68;55.60;;;4.40;99.90;;;;;;5054310;28;20025;-77
2022/01/16 04:44:44;;;;;;;132.32;57.47;;;4.40;99.90;;;;;;5056638;28;20040;-77
2022/01/16 04:47:10;;;;;;;123.00;54.45;;;4.40;99.90;;;;;;5061444;28;20024;-78
2022/01/16 04:49:36;;;;;;;131.95;57.03;;;4.50;99.90;;;;;;5053348;28;20029;-77
2022/01/16 04:52:02;;;;;;;138.27;59.70;;;4.50;99.90;;;;;;5066809;28;20029;-78
2022/01/16 04:54:28;;;;;;;140.80;59.17;;;4.40;99.90;;;;;;5052174;28;20362;-77
2022/01/16 04:56:53;;;;;;;138.55;58.22;;;4.40;99.90;;;;;;5052843;28;20032;-77
2022/01/16 04:59:20;;;;;;;142.75;60.00;;;4.50;99.90;;;;;;5052389;28;20422;-77
2022/01/16 05:01:46;;;;;;;143.25;61.03;;;4.40;99.90;;;;;;5052205;28;20473;-77
2022/01/16 05:04:13;;;;;;;147.57;61.90;;;4.40;99.90;;;;;;5056757;28;20033;-77
2022/01/16 05:06:39;;;;;;;152.65;67.28;;;4.50;99.90;;;;;;5074196;28;20469;-77
2022/01/16 05:09:04;;;;;;;150.98;64.38;;;4.50;99.90;;;;;;5073438;28;20021;-77
2022/01/16 05:11:30;;;;;;;142.75;62.92;;;4.50;99.90;;;;;;5072067;28;20017;-77
2022/01/16 05:16:40;;;;;;;168.07;69.25;;;4.60;99.90;;;;;;5066045;28;20021;-77
2022/01/16 05:19:15;;;;;;;153.15;65.28;;;4.60;99.90;;;;;;5048502;28;20048;-77
2022/01/16 05:21:52;;;;;;;136.18;62.05;;;4.60;99.90;;;;;;5051184;28;20244;-77
2022/01/16 05:24:18;;;;;;;144.82;62.95;;;4.60;99.90;;;;;;5051867;28;20432;-77
2022/01/16 05:26:45;;;;;;;164.10;67.38;;;4.70;99.90;;;;;;5052969;28;20079;-77
2022/01/16 05:29:12;;;;;;;149.40;63.08;;;4.70;99.90;;;;;;5053118;28;20035;-77
2022/01/16 05:31:46;;;;;;;142.80;63.60;;;4.60;99.90;;;;;;5051655;28;20107;-77
2022/01/16 05:34:14;;;;;;;152.20;62.70;;;4.70;99.90;;;;;;5052712;28;20029;-77
2022/01/16 05:36:43;;;;;;;135.57;60.47;;;4.60;99.90;;;;;;5052783;28;20027;-77
2022/01/16 05:39:21;;;;;;;142.60;64.03;;;4.60;99.90;;;;;;5051629;28;20037;-77
2022/01/16 05:41:51;;;;;;;149.88;64.40;;;4.60;99.90;;;;;;5043562;28;20112;-77
2022/01/16 05:44:17;;;;;;;146.18;60.38;;;4.70;99.90;;;;;;5048658;28;20120;-77
2022/01/16 05:46:45;;;;;;;149.52;62.60;;;4.70;99.90;;;;;;5064213;28;20442;-78
2022/01/16 05:49:12;;;;;;;152.23;63.50;;;4.70;99.90;;;;;;5053063;28;20047;-77
2022/01/16 05:51:39;;;;;;;151.50;65.80;;;4.70;99.90;;;;;;5053088;28;20374;-77
2022/01/16 05:54:04;;;;;;;137.02;62.92;;;4.80;99.90;;;;;;5052498;28;20373;-78
2022/01/16 05:56:30;;;;;;;146.48;63.08;;;4.70;99.90;;;;;;5053395;28;20104;-77
2022/01/16 05:58:56;;;;;;;142.35;62.53;;;4.60;99.90;;;;;;5052142;28;20090;-78
2022/01/16 06:01:25;;;;;;;135.73;62.33;;;4.70;99.90;;;;;;5051470;28;20067;-78
2022/01/16 06:03:53;;;;;;;157.55;65.68;;;4.70;99.90;;;;;;5051822;28;20052;-78
2022/01/16 06:06:20;;;;;;;159.48;66.65;;;4.70;99.90;;;;;;5053103;28;20036;-77
2022/01/16 06:08:52;;;;;;;149.10;62.10;;;4.70;99.90;;;;;;5051798;28;20394;-77
2022/01/16 06:11:20;;;;;;;146.50;61.30;;;4.60;99.90;;;;;;5051880;28;20024;-78
2022/01/16 06:13:52;;;;;;;147.90;62.92;;;4.50;99.90;;;;;;5053264;28;20104;-77
2022/01/16 06:16:24;;;;;;;146.52;60.63;;;4.60;99.90;;;;;;5053156;28;20104;-77
2022/01/16 06:18:55;;;;;;;145.17;65.90;;;4.50;99.90;;;;;;5053153;28;20025;-78
2022/01/16 06:21:24;;;;;;;159.90;67.05;;;4.60;99.90;;;;;;5052936;28;20021;-77
2022/01/16 06:23:52;;;;;;;156.65;64.00;;;4.60;99.90;;;;;;5051962;28;20021;-77
2022/01/16 06:26:19;;;;;;;150.75;60.75;;;4.60;99.90;;;;;;5053122;28;20033;-77
2022/01/16 06:28:45;;;;;;;141.82;60.35;;;4.60;99.90;;;;;;5052962;28;20029;-77
2022/01/16 06:31:11;;;;;;;154.48;65.88;;;4.60;99.90;;;;;;5052687;28;20208;-78
2022/01/16 06:33:36;;;;;;;146.05;61.58;;;4.60;99.90;;;;;;5068209;28;20108;-77
2022/01/16 06:36:05;;;;;;;151.55;60.72;;;4.60;99.90;;;;;;5052897;28;20029;-77
2022/01/16 06:38:31;;;;;;;142.50;61.50;;;4.60;99.90;;;;;;5052875;28;20100;-77
2022/01/16 06:40:58;;;;;;;163.75;70.32;;;4.60;99.90;;;;;;5068418;28;20116;-77
2022/01/16 06:43:24;;;;;;;160.55;67.93;;;4.60;99.90;;;;;;5052919;28;20482;-77
2022/01/16 06:45:52;;;;;;;145.45;59.45;;;4.70;99.90;;;;;;5052464;28;20041;-77
2022/01/16 06:48:21;;;;;;;150.27;62.75;;;4.70;99.90;;;;;;5052868;28;20021;-77
2022/01/16 06:50:47;;;;;;;152.95;67.40;;;4.70;99.90;;;;;;5052669;28;20041;-77
2022/01/16 06:53:16;;;;;;;142.05;61.95;;;4.80;99.90;;;;;;5068213;28;20025;-77
2022/01/16 06:55:41;;;;;;;164.35;64.88;;;4.80;99.90;;;;;;5051449;28;20028;-78
2022/01/16 06:58:08;;;;;;;164.00;67.43;;;4.80;99.90;;;;;;5055321;28;20052;-78
2022/01/16 07:00:35;;;;;;;150.07;61.30;;;4.90;99.90;;;;;;5056241;28;20025;-78
2022/01/16 07:03:01;;;;;;;150.45;62.40;;;4.90;99.90;;;;;;5056544;28;20025;-77
2022/01/16 07:05:26;;;;;;;153.27;63.00;;;4.90;99.90;;;;;;5055114;28;20116;-78
2022/01/16 07:07:55;;;;;;;145.43;60.80;;;4.90;99.90;;;;;;5071670;28;20846;-78
2022/01/16 07:10:23;;;;;;;162.25;65.60;;;4.90;99.90;;;;;;5055184;28;20021;-78
2022/01/16 07:12:51;;;;;;;149.55;60.90;;;4.90;99.90;;;;;;5056352;28;20024;-78
2022/01/16 07:15:17;;;;;;;147.25;61.17;;;5.00;99.90;;;;;;5055928;28;20029;-79
2022/01/16 07:17:44;;;;;;;132.93;58.58;;;5.00;99.90;;;;;;5055033;28;20075;-78
2022/01/16 07:20:15;;;;;;;138.15;60.03;;;4.90;99.90;;;;;;5055919;28;20044;-78
2022/01/16 07:22:44;;;;;;;131.52;57.67;;;4.90;99.90;;;;;;5042737;28;20024;-78
2022/01/16 07:25:13;;;;;;;126.78;53.25;;;4.90;99.90;;;;;;5055983;28;20049;-78
2022/01/16 07:27:39;;;;;;;136.60;58.70;;;4.90;99.90;;;;;;5060461;28;20027;-78
2022/01/16 07:30:07;;;;;;;140.63;56.30;;;4.90;99.90;;;;;;5056943;28;20029;-78
2022/01/16 07:32:34;;;;;;;139.20;56.35;;;4.90;99.90;;;;;;5045004;28;20112;-78
2022/01/16 07:35:00;;;;;;;126.63;53.60;;;4.90;99.90;;;;;;5035942;28;20022;-78
2022/01/16 07:37:29;;;;;;;124.88;52.08;;;4.90;99.90;;;;;;5051371;28;20040;-78
2022/01/16 07:39:56;;;;;;;131.25;55.53;;;5.00;99.90;;;;;;5034643;28;20033;-78
2022/01/16 07:42:25;;;;;;;129.57;55.47;;;5.00;99.90;;;;;;5051194;28;20041;-78
2022/01/16 07:44:54;;;;;;;137.40;54.08;;;5.00;99.90;;;;;;5059153;28;20482;-78
2022/01/16 07:47:23;;;;;;;122.68;52.90;;;5.00;99.90;;;;;;5054424;28;20106;-78
2022/01/16 07:49:48;;;;;;;122.47;51.70;;;5.10;99.90;;;;;;5054251;28;20470;-78
2022/01/16 07:52:14;;;;;;;122.95;52.95;;;5.10;99.90;;;;;;5055531;28;20025;-78
2022/01/16 07:54:47;;;;;;;125.20;52.47;;;5.10;99.90;;;;;;5054300;28;20020;-78
2022/01/16 07:57:13;;;;;;;114.97;49.63;;;5.10;99.90;;;;;;5037123;28;20018;-78
2022/01/16 07:59:40;;;;;;;113.97;50.97;;;5.10;99.90;;;;;;5035302;28;20029;-78
2022/01/16 08:02:09;;;;;;;121.03;51.08;;;5.20;99.90;;;;;;5073992;28;20477;-78
2022/01/16 08:04:37;;;;;;;114.43;49.22;;;5.20;99.90;;;;;;5074133;28;20056;-78
2022/01/16 08:07:09;;;;;;;120.57;48.63;;;5.20;99.90;;;;;;5058137;28;20425;-78
2022/01/16 08:09:41;;;;;;;122.88;51.83;;;5.20;99.90;;;;;;5053685;28;20481;-78
2022/01/16 08:12:09;;;;;;;119.85;52.65;;;5.20;99.90;;;;;;5055001;28;20017;-78
2022/01/16 08:14:36;;;;;;;126.90;54.53;;;5.20;99.90;;;;;;5053620;28;20021;-78
2022/01/16 08:17:04;;;;;;;129.40;54.10;;;5.20;99.90;;;;;;5055363;28;20394;-78
2022/01/16 08:19:30;;;;;;;116.53;49.13;;;5.20;99.90;;;;;;5055201;28;20021;-79
2022/01/16 08:21:56;;;;;;;131.45;54.10;;;5.10;99.90;;;;;;5054959;28;20027;-78
2022/01/16 08:24:24;;;;;;;117.35;48.78;;;5.20;99.90;;;;;;5055119;28;20040;-78
2022/01/16 08:26:51;;;;;;;116.88;49.80;;;5.10;99.90;;;;;;5054698;28;20021;-78
2022/01/16 08:29:20;;;;;;;132.02;52.63;;;5.20;99.90;;;;;;5035920;28;20104;-78
2022/01/16 08:31:46;;;;;;;132.18;54.50;;;5.20;99.90;;;;;;5035263;28;20084;-78
2022/01/16 08:34:17;;;;;;;131.90;57.33;;;5.20;99.90;;;;;;5042313;28;20485;-78
2022/01/16 08:36:46;;;;;;;128.73;55.17;;;5.30;99.90;;;;;;5054625;28;20029;-78
2022/01/16 08:39:14;;;;;;;123.65;52.08;;;5.30;99.90;;;;;;5060692;28;20032;-78
2022/01/16 08:41:40;;;;;;;130.38;54.90;;;5.30;99.90;;;;;;5073933;28;20028;-78
2022/01/16 08:44:08;;;;;;;132.48;53.22;;;5.40;99.90;;;;;;5073347;28;20029;-78
2022/01/16 08:46:37;;;;;;;126.32;50.78;;;5.30;99.90;;;;;;5072294;28;20031;-78
2022/01/16 08:49:03;;;;;;;131.25;51.50;;;5.30;99.90;;;;;;5054398;28;20033;-78
2022/01/16 08:51:32;;;;;;;128.18;52.20;;;5.30;99.90;;;;;;5052703;28;20164;-78
2022/01/16 08:53:58;;;;;;;140.48;55.20;;;5.40;99.90;;;;;;5053179;28;20397;-78
2022/01/16 08:56:26;;;;;;;128.85;52.78;;;5.40;99.90;;;;;;5052554;28;20025;-78
2022/01/16 08:58:53;;;;;;;137.93;52.88;;;5.40;99.90;;;;;;5052276;28;20055;-78
2022/01/16 09:01:19;;;;;;;129.45;52.20;;;5.40;99.90;;;;;;5060018;28;20124;-81
2022/01/16 09:03:46;;;;;;;130.02;50.30;;;5.40;99.90;;;;;;5052937;28;20060;-78
2022/01/16 09:06:13;;;;;;;133.48;51.35;;;5.50;99.90;;;;;;5054129;28;20027;-78
2022/01/16 09:08:40;;;;;;;141.13;52.03;;;5.50;99.90;;;;;;5052495;28;20466;-78
2022/01/16 09:11:07;;;;;;;127.10;50.72;;;5.50;99.90;;;;;;5053587;28;20025;-78
2022/01/16 09:13:34;;;;;;;146.45;52.22;;;5.60;99.90;;;;;;5052929;28;20124;-78
2022/01/16 09:16:00;;;;;;;136.80;52.30;;;5.60;99.90;;;;;;5053931;28;20467;-78
2022/01/16 09:18:27;;;;;;;145.82;53.58;;;5.50;99.90;;;;;;5053761;28;20104;-77
2022/01/16 09:20:53;;;;;;;133.52;52.38;;;5.60;99.90;;;;;;5051817;28;20024;-78
2022/01/16 09:23:19;;;;;;;142.13;54.03;;;5.60;99.90;;;;;;5053785;28;20053;-78
2022/01/16 09:25:46;;;;;;;141.52;55.92;;;5.70;99.90;;;;;;5053389;28;20021;-78
2022/01/16 09:28:12;;;;;;;127.53;49.88;;;5.70;99.90;;;;;;5052363;28;20036;-78
2022/01/16 09:30:42;;;;;;;158.75;56.90;;;5.70;99.90;;;;;;5053709;28;20021;-78
2022/01/16 09:33:11;;;;;;;133.98;52.72;;;5.70;99.90;;;;;;5053596;28;20070;-78
2022/01/16 09:35:36;;;;;;;146.55;55.40;;;5.70;99.90;;;;;;5068854;28;20071;-78
2022/01/16 09:38:03;;;;;;;144.20;53.45;;;5.70;99.90;;;;;;5045884;28;20083;-78
2022/01/16 09:40:30;;;;;;;151.70;56.90;;;5.70;99.90;;;;;;5070102;28;20025;-79
2022/01/16 09:42:57;;;;;;;154.13;56.20;;;5.70;99.90;;;;;;5072064;28;20033;-78
2022/01/16 09:45:23;;;;;;;154.27;57.17;;;5.80;99.90;;;;;;5073469;28;20028;-78
2022/01/16 09:47:49;;;;;;;141.77;54.85;;;5.80;99.90;;;;;;5072135;28;20028;-78
2022/01/16 09:50:22;;;;;;;146.18;54.28;;;5.80;99.90;;;;;;5066893;28;20363;-78
2022/01/16 09:52:49;;;;;;;141.95;53.40;;;5.80;99.90;;;;;;5051799;28;20021;-78
2022/01/16 09:55:17;;;;;;;144.38;51.78;;;5.80;99.90;;;;;;5052858;28;20024;-78
2022/01/16 09:57:45;;;;;;;147.93;54.33;;;5.90;99.90;;;;;;5054459;28;20044;-78
2022/01/16 10:00:14;;;;;;;142.75;56.03;;;5.90;99.90;;;;;;5052866;28;20021;-78
2022/01/16 10:02:43;;;;;;;150.98;56.42;;;5.90;99.90;;;;;;5053136;28;20040;-78
2022/01/16 10:05:30;;;;;;;144.95;53.60;;;5.90;99.90;;;;;;5053256;28;20053;-78
2022/01/16 10:08:08;;;;;;;135.48;51.08;;;5.90;99.90;;;;;;5051572;28;20064;-78
2022/01/16 10:10:37;;;;;;;139.10;50.17;;;5.90;99.90;;;;;;5071426;28;20469;-78
2022/01/16 10:13:33;;;;;;;146.70;51.65;;;5.90;99.90;;;;;;5073087;28;20032;-78
2022/01/16 10:16:01;;;;;;;143.10;49.40;;;5.90;99.90;;;;;;5073080;28;20052;-78
2022/01/16 10:18:39;;;;;;;144.73;50.85;;;6.00;99.90;;;;;;5073050;28;20020;-78
2022/01/16 10:21:08;;;;;;;140.82;49.25;;;6.00;99.90;;;;;;5071727;28;20024;-78
2022/01/16 10:23:45;;;;;;;138.73;47.88;;;6.00;99.90;;;;;;5071545;28;20033;-78
2022/01/16 10:26:19;;;;;;;132.75;47.90;;;6.00;99.90;;;;;;5071768;28;20033;-78
2022/01/16 10:28:44;;;;;;;141.13;49.92;;;6.00;99.90;;;;;;5070884;28;20021;-78
2022/01/16 10:31:25;;;;;;;127.70;48.30;;;6.10;99.90;;;;;;5069893;28;20027;-78
2022/01/16 10:33:54;;;;;;;139.40;49.00;;;6.10;99.90;;;;;;5055314;28;20036;-78
2022/01/16 10:36:38;;;;;;;134.23;49.65;;;6.10;99.90;;;;;;5055174;28;20041;-78
2022/01/16 10:39:10;;;;;;;126.28;46.17;;;6.20;99.90;;;;;;5055239;28;20032;-78
2022/01/16 10:41:36;;;;;;;121.35;47.03;;;6.20;99.90;;;;;;5056685;28;20086;-78
2022/01/16 10:44:02;;;;;;;133.48;48.25;;;6.20;99.90;;;;;;5055410;28;20112;-78
2022/01/16 10:46:28;;;;;;;130.50;47.75;;;6.20;99.90;;;;;;5056588;28;20107;-78
2022/01/16 10:49:19;;;;;;;126.38;49.92;;;6.20;99.90;;;;;;5055287;28;20028;-78
2022/01/16 10:52:05;;;;;;;136.73;50.80;;;6.30;99.90;;;;;;5056123;28;20021;-78
2022/01/16 10:54:34;;;;;;;136.05;48.58;;;6.40;99.90;;;;;;5036781;28;20370;-78
2022/01/16 10:57:17;;;;;;;141.20;51.50;;;6.50;99.90;;;;;;5052163;28;20013;-78
2022/01/16 10:59:45;;;;;;;128.15;47.88;;;6.50;99.90;;;;;;5036719;28;20104;-78
2022/01/16 11:02:16;;;;;;;131.15;48.92;;;6.60;99.90;;;;;;5054641;28;20029;-78
2022/01/16 11:04:42;;;;;;;130.93;50.60;;;6.60;99.90;;;;;;5056319;28;20063;-78
2022/01/16 11:07:08;;;;;;;130.02;49.58;;;6.60;99.90;;;;;;5055941;28;20100;-79
2022/01/16 11:09:35;;;;;;;131.25;49.20;;;6.60;99.90;;;;;;5058214;28;20032;-78
2022/01/16 11:12:00;;;;;;;133.10;49.75;;;6.70;99.90;;;;;;5054816;28;20017;-78
2022/01/16 11:14:31;;;;;;;123.68;49.17;;;6.70;99.90;;;;;;5056031;28;20079;-78
2022/01/16 11:16:58;;;;;;;131.13;51.50;;;6.60;99.90;;;;;;5056097;28;20021;-78
2022/01/16 11:19:26;;;;;;;115.00;49.65;;;6.70;99.90;;;;;;5054981;28;20036;-78
2022/01/16 11:21:56;;;;;;;128.13;48.65;;;6.70;99.90;;;;;;5054851;28;20032;-78
2022/01/16 11:24:48;;;;;;;122.22;47.72;;;6.60;99.90;;;;;;5054474;28;20040;-78
2022/01/16 11:27:17;;;;;;;129.30;50.25;;;6.60;99.90;;;;;;5054811;28;20032;-78
2022/01/16 11:29:44;;;;;;;116.68;45.90;;;6.60;99.90;;;;;;5054554;28;20033;-79
2022/01/16 11:32:10;;;;;;;116.80;46.58;;;6.70;99.90;;;;;;5054756;28;20036;-79
2022/01/16 11:34:40;;;;;;;116.72;46.45;;;6.60;99.90;;;;;;5054372;28;20029;-79
2022/01/16 11:37:07;;;;;;;106.47;44.15;;;6.60;99.90;;;;;;5053966;28;20481;-79
2022/01/16 11:39:39;;;;;;;117.75;46.20;;;6.50;99.90;;;;;;5054712;28;20115;-79
2022/01/16 11:42:25;;;;;;;116.68;47.28;;;6.60;99.90;;;;;;5055574;28;20449;-79
2022/01/16 11:44:54;;;;;;;112.70;46.08;;;6.60;99.90;;;;;;5054286;28;20051;-79
2022/01/16 11:47:19;;;;;;;121.45;48.03;;;6.60;99.90;;;;;;5054482;28;20051;-79
2022/01/16 11:49:47;;;;;;;110.38;46.13;;;6.60;99.90;;;;;;5044992;28;20033;-79
2022/01/16 11:52:18;;;;;;;113.38;46.70;;;6.70;99.90;;;;;;5053985;28;20029;-79
2022/01/16 11:54:45;;;;;;;116.55;46.65;;;6.70;99.90;;;;;;5054001;28;20477;-78
2022/01/16 11:57:35;;;;;;;108.53;44.67;;;6.70;99.90;;;;;;5053967;28;20017;-78
2022/01/16 12:00:12;;;;;;;101.55;41.83;;;6.80;99.90;;;;;;5070586;28;20036;-79
2022/01/16 12:02:48;;;;;;;118.75;52.55;;;6.70;99.90;;;;;;5070665;28;20485;-79
2022/01/16 12:05:26;;;;;;;95.75;40.60;;;6.70;99.90;;;;;;5044078;28;20060;-79
2022/01/16 12:08:07;;;;;;;98.13;42.55;;;6.70;99.90;;;;;;5036141;28;20620;-79
2022/01/16 12:10:42;;;;;;;105.18;44.13;;;6.80;99.90;;;;;;5043329;28;20043;-79
2022/01/16 12:13:43;;;;;;;102.05;41.13;;;6.80;99.90;;;;;;5062654;28;20079;-79
2022/01/16 12:16:45;;;;;;;96.80;39.55;;;6.80;99.90;;;;;;5056123;28;20031;-79
2022/01/16 12:19:33;;;;;;;103.25;41.42;;;6.80;99.90;;;;;;5045280;28;20028;-79
2022/01/16 12:21:59;;;;;;;94.18;40.78;;;6.80;99.90;;;;;;5045269;28;20064;-79
2022/01/16 12:24:34;;;;;;;102.93;41.80;;;6.80;99.90;;;;;;5051030;28;20032;-78
2022/01/16 12:27:26;;;;;;;88.78;38.67;;;6.80;99.90;;;;;;5073495;28;20443;-79
2022/01/16 12:30:37;;;;;;;93.50;40.67;;;6.70;99.90;;;;;;5073043;28;20028;-79
2022/01/16 12:33:09;;;;;;;93.90;43.10;;;6.60;99.90;;;;;;5045247;28;20037;-79
2022/01/16 12:35:50;;;;;;;93.30;37.47;;;6.70;99.90;;;;;;5053020;28;20064;-79
2022/01/16 12:38:24;;;;;;;94.05;39.90;;;6.70;99.90;;;;;;5060543;28;20024;-79
2022/01/16 12:40:57;;;;;;;97.10;40.33;;;6.80;99.90;;;;;;5072179;28;20048;-80
2022/01/16 12:46:03;;;;;;;86.40;39.45;;;6.80;99.90;;;;;;5034788;28;20103;-80
2022/01/16 12:48:30;;;;;;;97.18;43.13;;;6.80;99.90;;;;;;5045166;28;20025;-79
2022/01/16 12:51:08;;;;;;;99.93;45.22;;;6.70;99.90;;;;;;5048371;28;20020;-80
2022/01/16 12:53:46;;;;;;;88.10;40.75;;;6.80;99.90;;;;;;5042171;28;20018;-79
2022/01/16 12:56:16;;;;;;;93.78;41.78;;;6.80;99.90;;;;;;5054274;28;20386;-79
2022/01/16 12:58:47;;;;;;;93.28;39.42;;;6.80;99.90;;;;;;5041128;28;20441;-79
2022/01/16 13:01:19;;;;;;;95.57;41.97;;;6.80;99.90;;;;;;5054843;28;20025;-79
2022/01/16 13:03:50;;;;;;;86.93;39.17;;;6.90;99.90;;;;;;5050548;28;20095;-79
2022/01/16 13:06:31;;;;;;;85.03;39.72;;;6.80;99.90;;;;;;5052649;28;20033;-79
2022/01/16 13:09:06;;;;;;;79.88;38.40;;;6.80;99.90;;;;;;5052429;28;20124;-79
2022/01/16 13:11:40;;;;;;;82.72;37.15;;;6.70;99.90;;;;;;5052628;28;20057;-79
2022/01/16 13:14:09;;;;;;;74.30;33.30;;;6.80;99.90;;;;;;5044369;28;20076;-79
2022/01/16 13:16:41;;;;;;;75.32;33.45;;;6.80;99.90;;;;;;5041185;28;20017;-79
2022/01/16 13:19:26;;;;;;;71.72;33.03;;;6.70;99.90;;;;;;5051737;28;20447;-79
2022/01/16 13:22:13;;;;;;;73.47;33.28;;;6.80;99.90;;;;;;5053666;28;20355;-79
2022/01/16 13:24:47;;;;;;;66.45;30.33;;;6.80;99.90;;;;;;5055967;28;20034;-79
2022/01/16 13:27:20;;;;;;;65.00;31.70;;;6.80;99.90;;;;;;5051562;28;20037;-79